Time,TemperatureF,DewpointF,PressureIn,WindDirection,WindDirectionDegrees,WindSpeedMPH,WindSpeedGustMPH,Humidity,HourlyPrecipIn,Conditions,Clouds,dailyrainin,SolarRadiationWatts/m^2,SoftwareType,DateUTC
2013-06-25 00:02:00,63.7,62.5,29.81,South,182,0.0,0.0,96,0.00,,,0.00,0,Wunderground v.1.15,2013-06-25 05:02:00,
2013-06-25 00:12:00,63.7,62.5,29.81,South,182,0.0,0.0,96,0.00,,,0.00,0,Wunderground v.1.15,2013-06-25 05:12:00,
2013-06-25 00:22:00,63.7,62.8,29.80,South,182,0.0,0.0,97,0.00,,,0.00,0,Wunderground v.1.15,2013-06-25 05:22:00,
2013-06-25 00:32:00,63.9,63.0,29.80,South,182,0.0,0.0,97,0.00,,,0.00,0,Wunderground v.1.15,2013-06-25 05:32:00,
2013-06-25 00:52:00,67.1,66.8,29.80,South,182,0.0,1.0,99,0.00,,,0.00,0,Wunderground v.1.15,2013-06-25 05:52:00,
2013-06-25 01:12:00,69.8,68.3,29.80,West,267,2.0,2.0,95,0.00,,,0.00,0,Wunderground v.1.15,2013-06-25 06:12:00,
2013-06-25 01:22:00,69.9,68.7,29.80,WNW,296,4.0,12.0,96,0.24,,,0.05,0,Wunderground v.1.15,2013-06-25 06:22:00,
2013-06-25 01:32:00,69.8,68.9,29.80,WNW,301,7.0,7.0,97,0.92,,,0.22,0,Wunderground v.1.15,2013-06-25 06:32:00,
2013-06-25 01:42:00,69.6,69.0,29.80,West,272,4.0,10.0,98,0.24,,,0.29,0,Wunderground v.1.15,2013-06-25 06:42:00,
2013-06-25 01:52:00,69.4,69.1,29.82,West,260,6.0,6.0,99,0.36,,,0.36,0,Wunderground v.1.15,2013-06-25 06:52:00,
2013-06-25 02:02:00,68.6,68.3,29.82,West,261,5.0,5.0,99,0.91,,,0.48,0,Wunderground v.1.15,2013-06-25 07:02:00,
2013-06-25 02:12:00,68.1,67.8,29.82,NNW,332,4.0,4.0,99,0.55,,,0.63,0,Wunderground v.1.15,2013-06-25 07:12:00,
2013-06-25 02:22:00,67.8,67.8,29.82,NNW,332,5.0,5.0,100,0.67,,,0.78,0,Wunderground v.1.15,2013-06-25 07:22:00,
2013-06-25 02:42:00,67.4,67.4,29.81,NNW,333,1.0,2.0,100,0.23,,,0.88,0,Wunderground v.1.15,2013-06-25 07:42:00,
2013-06-25 02:52:00,67.6,67.6,29.82,NNW,333,1.0,1.0,100,0.12,,,0.90,0,Wunderground v.1.15,2013-06-25 07:52:00,
2013-06-25 03:02:00,67.4,67.4,29.82,NNW,333,2.0,2.0,100,0.06,,,0.91,0,Wunderground v.1.15,2013-06-25 08:02:00,
2013-06-25 03:12:00,67.4,67.4,29.80,NNW,333,0.0,0.0,100,0.09,,,0.93,0,Wunderground v.1.15,2013-06-25 08:12:00,
2013-06-25 03:22:00,67.1,67.1,29.79,NNW,333,0.0,1.0,100,0.05,,,0.93,0,Wunderground v.1.15,2013-06-25 08:22:00,
2013-06-25 03:32:00,67.1,67.1,29.79,NNW,333,0.0,0.0,100,0.05,,,0.94,0,Wunderground v.1.15,2013-06-25 08:32:00,
2013-06-25 03:42:00,66.9,66.9,29.80,NNW,333,1.0,1.0,100,0.19,,,0.97,0,Wunderground v.1.15,2013-06-25 08:42:00,
2013-06-25 03:52:00,67.1,67.1,29.81,NNW,333,0.0,0.0,100,0.10,,,0.99,0,Wunderground v.1.15,2013-06-25 08:52:00,
2013-06-25 04:02:00,67.4,67.4,29.81,NNW,333,0.0,0.0,100,0.16,,,1.02,0,Wunderground v.1.15,2013-06-25 09:02:00,
2013-06-25 04:12:00,68.3,68.3,29.81,NNW,333,1.0,2.0,100,0.20,,,1.04,0,Wunderground v.1.15,2013-06-25 09:12:00,
2013-06-25 04:22:00,68.6,68.6,29.81,NW,325,2.0,2.0,100,0.10,,,1.06,0,Wunderground v.1.15,2013-06-25 09:22:00,
2013-06-25 04:32:00,68.6,68.6,29.81,NW,325,1.0,1.0,100,0.04,,,1.06,0,Wunderground v.1.15,2013-06-25 09:32:00,
2013-06-25 04:42:00,68.8,68.8,29.80,NW,325,1.0,2.0,100,0.00,,,1.07,0,Wunderground v.1.15,2013-06-25 09:42:00,
2013-06-25 04:52:00,68.8,68.8,29.80,NW,325,2.0,3.0,100,0.00,,,1.07,0,Wunderground v.1.15,2013-06-25 09:52:00,
2013-06-25 05:02:00,68.8,68.8,29.80,NW,306,3.0,3.0,100,0.00,,,1.07,0,Wunderground v.1.15,2013-06-25 10:02:00,
2013-06-25 05:12:00,68.6,68.6,29.79,NW,306,2.0,2.0,100,0.00,,,1.07,0,Wunderground v.1.15,2013-06-25 10:12:00,
2013-06-25 05:22:00,68.8,68.8,29.80,WNW,298,3.0,3.0,100,0.00,,,1.07,0,Wunderground v.1.15,2013-06-25 10:22:00,
2013-06-25 05:32:00,68.8,68.8,29.80,North,353,2.0,3.0,100,0.00,,,1.07,0,Wunderground v.1.15,2013-06-25 10:32:00,
2013-06-25 05:42:00,68.6,68.6,29.80,West,274,4.0,4.0,100,0.00,,,1.07,7,Wunderground v.1.15,2013-06-25 10:42:00,
2013-06-25 05:52:00,68.8,68.8,29.80,West,274,2.0,2.0,100,0.00,,,1.07,11,Wunderground v.1.15,2013-06-25 10:52:00,
2013-06-25 06:02:00,68.8,68.8,29.80,West,274,0.0,0.0,100,0.00,,,1.07,14,Wunderground v.1.15,2013-06-25 11:02:00,
2013-06-25 06:12:00,68.6,68.6,29.81,West,274,1.0,1.0,100,0.00,,,1.07,28,Wunderground v.1.15,2013-06-25 11:12:00,
2013-06-25 06:22:00,68.6,68.3,29.81,West,274,2.0,2.0,99,0.00,,,1.07,35,Wunderground v.1.15,2013-06-25 11:22:00,
2013-06-25 06:32:00,68.4,68.1,29.81,WNW,284,4.0,7.0,99,0.00,,,1.07,30,Wunderground v.1.15,2013-06-25 11:32:00,
2013-06-25 06:42:00,68.4,68.1,29.81,WNW,284,4.0,5.0,99,0.00,,,1.07,48,Wunderground v.1.15,2013-06-25 11:42:00,
2013-06-25 06:52:00,68.4,68.1,29.81,West,263,5.0,7.0,99,0.00,,,1.07,81,Wunderground v.1.15,2013-06-25 11:52:00,
2013-06-25 07:02:00,68.6,68.0,29.81,West,274,5.0,5.0,98,0.00,,,1.07,113,Wunderground v.1.15,2013-06-25 12:02:00,
2013-06-25 07:12:00,68.8,68.2,29.80,West,278,4.0,5.0,98,0.00,,,1.07,127,Wunderground v.1.15,2013-06-25 12:12:00,
2013-06-25 07:22:00,68.8,67.9,29.79,West,278,3.0,3.0,97,0.00,,,1.07,116,Wunderground v.1.15,2013-06-25 12:22:00,
2013-06-25 07:32:00,69.1,67.9,29.79,North,349,2.0,2.0,96,0.00,,,1.07,167,Wunderground v.1.15,2013-06-25 12:32:00,
2013-06-25 07:42:00,69.4,68.2,29.78,North,349,1.0,1.0,96,0.00,,,1.07,150,Wunderground v.1.15,2013-06-25 12:42:00,
2013-06-25 07:52:00,69.8,68.3,29.78,North,349,1.0,1.0,95,0.00,,,1.07,176,Wunderground v.1.15,2013-06-25 12:52:00,
2013-06-25 08:02:00,69.8,68.3,29.78,West,278,4.0,4.0,95,0.00,,,1.07,167,Wunderground v.1.15,2013-06-25 13:02:00,
2013-06-25 08:12:00,70.1,68.6,29.79,West,270,5.0,7.0,95,0.00,,,1.07,387,Wunderground v.1.15,2013-06-25 13:12:00,
2013-06-25 08:22:00,71.1,68.7,29.80,WSW,250,5.0,6.0,92,0.00,,,1.07,500,Wunderground v.1.15,2013-06-25 13:22:00,
2013-06-25 08:32:00,71.6,69.2,29.80,West,263,4.0,4.0,92,0.00,,,1.07,317,Wunderground v.1.15,2013-06-25 13:32:00,
2013-06-25 08:42:00,71.6,67.9,29.81,West,277,6.0,6.0,88,0.00,,,1.07,195,Wunderground v.1.15,2013-06-25 13:42:00,
2013-06-25 08:52:00,71.3,68.2,29.83,WSW,256,4.0,4.0,90,0.00,,,1.07,174,Wunderground v.1.15,2013-06-25 13:52:00,
2013-06-25 09:02:00,70.9,67.8,29.83,WSW,246,4.0,4.0,90,0.00,,,1.07,167,Wunderground v.1.15,2013-06-25 14:02:00,
2013-06-25 09:12:00,70.9,67.8,29.83,SW,236,4.0,4.0,90,0.00,,,1.07,252,Wunderground v.1.15,2013-06-25 14:12:00,
2013-06-25 09:22:00,71.3,67.9,29.82,WSW,248,4.0,4.0,89,0.00,,,1.07,266,Wunderground v.1.15,2013-06-25 14:22:00,
2013-06-25 09:32:00,71.6,67.9,29.82,WNW,298,6.0,6.0,88,0.00,,,1.07,326,Wunderground v.1.15,2013-06-25 14:32:00,
2013-06-25 09:42:00,71.5,67.4,29.83,WNW,291,8.0,8.0,87,0.00,,,1.07,317,Wunderground v.1.15,2013-06-25 14:42:00,
2013-06-25 09:52:00,71.6,67.5,29.83,WSW,244,7.0,10.0,87,0.00,,,1.07,357,Wunderground v.1.15,2013-06-25 14:52:00,
2013-06-25 10:02:00,73.0,68.6,29.83,SW,224,6.0,6.0,86,0.00,,,1.07,825,Wunderground v.1.15,2013-06-25 15:02:00,
2013-06-25 10:12:00,74.4,68.9,29.83,WNW,292,6.0,7.0,83,0.00,,,1.07,813,Wunderground v.1.15,2013-06-25 15:12:00,
2013-06-25 10:22:00,73.9,68.4,29.83,West,267,6.0,6.0,83,0.00,,,1.07,417,Wunderground v.1.15,2013-06-25 15:22:00,
2013-06-25 10:32:00,73.3,67.8,29.83,WSW,257,6.0,7.0,83,0.00,,,1.07,266,Wunderground v.1.15,2013-06-25 15:32:00,
2013-06-25 10:42:00,72.5,67.4,29.83,WNW,291,6.0,6.0,84,0.00,,,1.07,306,Wunderground v.1.15,2013-06-25 15:42:00,
2013-06-25 10:52:00,72.5,67.7,29.83,WSW,254,4.0,5.0,85,0.00,,,1.07,280,Wunderground v.1.15,2013-06-25 15:52:00,
2013-06-25 11:12:00,72.5,67.4,29.82,NW,306,4.0,6.0,84,0.00,,,1.07,241,Wunderground v.1.15,2013-06-25 16:12:00,
2013-06-25 11:22:00,72.3,66.8,29.82,WSW,247,5.0,5.0,83,0.00,,,1.07,294,Wunderground v.1.15,2013-06-25 16:22:00,
2013-06-25 11:32:00,72.7,67.6,29.82,WSW,258,5.0,7.0,84,0.00,,,1.07,371,Wunderground v.1.15,2013-06-25 16:32:00,
2013-06-25 11:42:00,73.3,68.2,29.82,SW,230,4.0,6.0,84,0.00,,,1.07,531,Wunderground v.1.15,2013-06-25 16:42:00,
2013-06-25 11:52:00,73.3,67.1,29.82,West,270,6.0,7.0,81,0.00,,,1.07,442,Wunderground v.1.15,2013-06-25 16:52:00,
2013-06-25 12:02:00,73.9,68.4,29.82,SSW,199,4.0,7.0,83,0.00,,,1.07,491,Wunderground v.1.15,2013-06-25 17:02:00,
2013-06-25 12:12:00,74.6,68.0,29.81,WSW,244,6.0,6.0,80,0.00,,,1.07,758,Wunderground v.1.15,2013-06-25 17:12:00,
2013-06-25 12:22:00,74.9,67.9,29.80,SW,222,6.0,6.0,79,0.00,,,1.07,556,Wunderground v.1.15,2013-06-25 17:22:00,
2013-06-25 12:32:00,75.1,67.4,29.80,SSW,209,6.0,6.0,77,0.00,,,1.07,695,Wunderground v.1.15,2013-06-25 17:32:00,
2013-06-25 12:42:00,75.8,67.7,29.79,West,271,5.0,5.0,76,0.00,,,1.07,859,Wunderground v.1.15,2013-06-25 17:42:00,
2013-06-25 12:52:00,76.3,67.8,29.79,SW,236,5.0,5.0,75,0.00,,,1.07,855,Wunderground v.1.15,2013-06-25 17:52:00,
2013-06-25 13:02:00,76.5,67.6,29.79,SW,236,5.0,5.0,74,0.00,,,1.07,808,Wunderground v.1.15,2013-06-25 18:02:00,
2013-06-25 13:12:00,77.0,66.9,29.79,SW,226,4.0,4.0,71,0.00,,,1.07,728,Wunderground v.1.15,2013-06-25 18:12:00,
2013-06-25 13:22:00,76.8,66.7,29.79,SW,226,2.0,2.0,71,0.00,,,1.07,456,Wunderground v.1.15,2013-06-25 18:22:00,
2013-06-25 13:32:00,77.2,67.5,29.79,WSW,247,3.0,3.0,72,0.00,,,1.07,498,Wunderground v.1.15,2013-06-25 18:32:00,
2013-06-25 13:42:00,77.4,67.3,29.79,WSW,240,3.0,3.0,71,0.00,,,1.07,584,Wunderground v.1.15,2013-06-25 18:42:00,
2013-06-25 13:52:00,76.3,68.6,29.80,South,172,4.0,6.0,77,0.00,,,1.07,772,Wunderground v.1.15,2013-06-25 18:52:00,
2013-06-25 14:02:00,75.4,67.3,29.80,SSE,148,6.0,7.0,76,0.00,,,1.07,677,Wunderground v.1.15,2013-06-25 19:02:00,
2013-06-25 14:12:00,73.2,67.0,29.81,South,185,9.0,14.0,81,0.00,,,1.07,633,Wunderground v.1.15,2013-06-25 19:12:00,
2013-06-25 14:22:00,73.9,68.4,29.81,SSW,205,8.0,11.0,83,0.00,,,1.07,839,Wunderground v.1.15,2013-06-25 19:22:00,
2013-06-25 14:32:00,75.1,69.2,29.81,SSW,202,8.0,8.0,82,0.00,,,1.07,799,Wunderground v.1.15,2013-06-25 19:32:00,
2013-06-25 14:42:00,75.6,69.4,29.81,South,175,8.0,8.0,81,0.00,,,1.07,785,Wunderground v.1.15,2013-06-25 19:42:00,
2013-06-25 14:52:00,76.0,69.4,29.81,SSW,192,8.0,8.0,80,0.00,,,1.07,779,Wunderground v.1.15,2013-06-25 19:52:00,
2013-06-25 15:02:00,76.1,68.7,29.81,South,189,7.0,7.0,78,0.00,,,1.07,732,Wunderground v.1.15,2013-06-25 20:02:00,
2013-06-25 15:12:00,76.3,68.6,29.80,SSW,196,7.0,10.0,77,0.00,,,1.07,686,Wunderground v.1.15,2013-06-25 20:12:00,
2013-06-25 15:22:00,76.5,68.7,29.80,SSW,196,8.0,8.0,77,0.00,,,1.07,746,Wunderground v.1.15,2013-06-25 20:22:00,
2013-06-25 15:32:00,77.0,69.2,29.80,SSW,206,6.0,6.0,77,0.00,,,1.07,767,Wunderground v.1.15,2013-06-25 20:32:00,
2013-06-25 15:42:00,78.1,70.3,29.79,SSW,206,4.0,7.0,77,0.00,,,1.07,704,Wunderground v.1.15,2013-06-25 20:42:00,
2013-06-25 15:52:00,77.2,68.7,29.80,SSW,196,8.0,8.0,75,0.00,,,1.07,690,Wunderground v.1.15,2013-06-25 20:52:00,
2013-06-25 16:02:00,76.3,69.3,29.80,South,189,7.0,7.0,79,0.00,,,1.07,648,Wunderground v.1.15,2013-06-25 21:02:00,
2013-06-25 16:12:00,76.7,69.3,29.80,South,189,7.0,7.0,78,0.00,,,1.07,535,Wunderground v.1.15,2013-06-25 21:12:00,
2013-06-25 16:22:00,76.8,69.0,29.80,SSE,148,7.0,7.0,77,0.00,,,1.07,516,Wunderground v.1.15,2013-06-25 21:22:00,
2013-06-25 16:42:00,75.6,68.6,29.80,South,189,7.0,7.0,79,0.00,,,1.07,533,Wunderground v.1.15,2013-06-25 21:42:00,
2013-06-25 16:52:00,75.1,68.5,29.79,SSW,192,9.0,9.0,80,0.00,,,1.07,334,Wunderground v.1.15,2013-06-25 21:52:00,
2013-06-25 17:02:00,74.7,67.8,29.79,SSW,195,8.0,8.0,79,0.00,,,1.07,440,Wunderground v.1.15,2013-06-25 22:02:00,
2013-06-25 17:12:00,74.9,68.3,29.78,SSW,192,8.0,12.0,80,0.00,,,1.07,306,Wunderground v.1.15,2013-06-25 22:12:00,
2013-06-25 17:22:00,75.4,68.4,29.77,SSW,208,8.0,8.0,79,0.00,,,1.07,417,Wunderground v.1.15,2013-06-25 22:22:00,
2013-06-25 17:32:00,75.4,68.8,29.77,SSW,193,6.0,6.0,80,0.00,,,1.07,230,Wunderground v.1.15,2013-06-25 22:32:00,
2013-06-25 17:42:00,75.4,68.8,29.77,South,175,4.0,5.0,80,0.00,,,1.07,329,Wunderground v.1.15,2013-06-25 22:42:00,
2013-06-25 17:52:00,75.3,69.1,29.76,South,176,5.0,5.0,81,0.00,,,1.07,326,Wunderground v.1.15,2013-06-25 22:52:00,
2013-06-25 18:02:00,75.3,69.1,29.76,South,181,5.0,6.0,81,0.00,,,1.07,266,Wunderground v.1.15,2013-06-25 23:02:00,
2013-06-25 18:12:00,74.9,69.0,29.76,SW,233,5.0,5.0,82,0.00,,,1.07,162,Wunderground v.1.15,2013-06-25 23:12:00,
2013-06-25 18:22:00,74.4,68.2,29.76,SSW,212,4.0,4.0,81,0.00,,,1.07,164,Wunderground v.1.15,2013-06-25 23:22:00,
2013-06-25 18:32:00,74.6,68.7,29.76,SSW,199,1.0,2.0,82,0.00,,,1.07,174,Wunderground v.1.15,2013-06-25 23:32:00,
2013-06-25 18:42:00,74.4,68.9,29.76,SSW,199,2.0,3.0,83,0.00,,,1.07,139,Wunderground v.1.15,2013-06-25 23:42:00,
2013-06-25 18:52:00,73.9,68.4,29.76,SSW,199,2.0,2.0,83,0.00,,,1.07,100,Wunderground v.1.15,2013-06-25 23:52:00,
2013-06-25 19:02:00,73.9,68.8,29.76,SSW,199,0.0,0.0,84,0.00,,,1.07,120,Wunderground v.1.15,2013-06-26 00:02:00,
2013-06-25 19:12:00,73.9,68.4,29.77,SSW,199,0.0,1.0,83,0.00,,,1.07,172,Wunderground v.1.15,2013-06-26 00:12:00,
2013-06-25 19:22:00,73.5,68.4,29.77,SSW,199,1.0,1.0,84,0.00,,,1.07,155,Wunderground v.1.15,2013-06-26 00:22:00,
2013-06-25 19:32:00,72.8,67.3,29.77,SSW,195,2.0,3.0,83,0.00,,,1.07,104,Wunderground v.1.15,2013-06-26 00:32:00,
2013-06-25 19:42:00,70.1,65.4,29.77,South,178,5.0,5.0,85,0.00,,,1.07,97,Wunderground v.1.15,2013-06-26 00:42:00,
2013-06-25 19:52:00,69.3,65.6,29.78,South,185,6.0,7.0,88,0.00,,,1.07,79,Wunderground v.1.15,2013-06-26 00:52:00,
2013-06-25 20:02:00,69.1,65.7,29.78,South,189,6.0,6.0,89,0.00,,,1.07,46,Wunderground v.1.15,2013-06-26 01:02:00,
2013-06-25 20:12:00,68.8,65.7,29.78,SSW,192,6.0,6.0,90,0.00,,,1.07,35,Wunderground v.1.15,2013-06-26 01:12:00,
2013-06-25 20:22:00,68.4,65.7,29.77,SSW,192,4.0,4.0,91,0.00,,,1.07,18,Wunderground v.1.15,2013-06-26 01:22:00,
2013-06-25 20:32:00,68.3,65.9,29.77,SSW,192,1.0,1.0,92,0.00,,,1.07,14,Wunderground v.1.15,2013-06-26 01:32:00,
2013-06-25 20:42:00,68.1,65.7,29.77,SSW,192,0.0,0.0,92,0.00,,,1.07,12,Wunderground v.1.15,2013-06-26 01:42:00,
2013-06-25 20:52:00,67.8,65.7,29.76,SSW,192,0.0,0.0,93,0.00,,,1.07,0,Wunderground v.1.15,2013-06-26 01:52:00,
2013-06-25 21:02:00,67.3,65.5,29.76,SSW,192,0.0,0.0,94,0.00,,,1.07,0,Wunderground v.1.15,2013-06-26 02:02:00,
2013-06-25 21:12:00,66.8,65.3,29.77,SSW,192,0.0,0.0,95,0.00,,,1.07,0,Wunderground v.1.15,2013-06-26 02:12:00,
2013-06-25 21:22:00,66.3,65.1,29.77,SSW,192,0.0,0.0,96,0.00,,,1.07,0,Wunderground v.1.15,2013-06-26 02:22:00,
2013-06-25 21:32:00,66.0,64.8,29.77,SSW,192,0.0,0.0,96,0.00,,,1.07,0,Wunderground v.1.15,2013-06-26 02:32:00,
2013-06-25 21:42:00,65.6,64.7,29.77,SSW,192,0.0,0.0,97,0.00,,,1.07,0,Wunderground v.1.15,2013-06-26 02:42:00,
2013-06-25 21:52:00,65.3,64.4,29.77,SSW,192,1.0,1.0,97,0.00,,,1.07,0,Wunderground v.1.15,2013-06-26 02:52:00,
2013-06-25 22:02:00,65.0,64.4,29.77,SSW,192,0.0,0.0,98,0.00,,,1.07,0,Wunderground v.1.15,2013-06-26 03:02:00,
2013-06-25 22:12:00,64.7,64.4,29.77,SSW,192,0.0,0.0,99,0.00,,,1.07,0,Wunderground v.1.15,2013-06-26 03:12:00,
2013-06-25 22:22:00,64.5,64.2,29.76,SSW,192,0.0,0.0,99,0.00,,,1.07,0,Wunderground v.1.15,2013-06-26 03:22:00,
2013-06-25 22:32:00,64.0,63.7,29.76,SSW,192,0.0,0.0,99,0.00,,,1.07,0,Wunderground v.1.15,2013-06-26 03:32:00,
2013-06-25 22:42:00,63.5,63.5,29.76,SSW,192,0.0,0.0,100,0.00,,,1.07,0,Wunderground v.1.15,2013-06-26 03:42:00,
2013-06-25 22:52:00,63.4,63.4,29.77,SSW,192,0.0,2.0,100,0.00,,,1.07,0,Wunderground v.1.15,2013-06-26 03:52:00,
2013-06-25 23:02:00,63.1,63.1,29.77,SSW,192,2.0,2.0,100,0.00,,,1.07,0,Wunderground v.1.15,2013-06-26 04:02:00,
2013-06-25 23:12:00,61.3,61.0,29.76,South,191,2.0,6.0,99,0.00,,,1.07,0,Wunderground v.1.15,2013-06-26 04:12:00,
2013-06-25 23:22:00,59.3,59.3,29.77,South,185,3.0,3.0,100,0.00,,,1.07,0,Wunderground v.1.15,2013-06-26 04:22:00,
2013-06-25 23:32:00,59.6,59.6,29.77,South,185,3.0,5.0,100,0.00,,,1.07,0,Wunderground v.1.15,2013-06-26 04:32:00,
2013-06-25 23:42:00,59.6,59.6,29.78,South,185,2.0,2.0,100,0.00,,,1.07,0,Wunderground v.1.15,2013-06-26 04:42:00,
2013-06-25 23:52:00,59.6,59.6,29.78,South,185,0.0,0.0,100,0.00,,,1.07,0,Wunderground v.1.15,2013-06-26 04:52:00,